createdAt,value
2023-03-29T00:03:52.195Z,6.40
2023-03-29T00:09:02.197Z,6.40
2023-03-29T00:14:14.233Z,6.40
2023-03-29T00:19:46.670Z,6.40
2023-03-29T00:25:03.918Z,6.40
2023-03-29T00:30:15.094Z,6.50
2023-03-29T00:35:22.534Z,6.50
2023-03-29T00:41:35.377Z,6.50
2023-03-29T00:46:41.597Z,6.50
2023-03-29T00:52:02.352Z,6.60
2023-03-29T00:57:14.976Z,6.60
2023-03-29T01:02:41.952Z,6.70
2023-03-29T01:08:22.528Z,6.70
2023-03-29T01:13:39.142Z,6.70
2023-03-29T01:19:24.339Z,6.80
2023-03-29T01:24:35.817Z,6.80
2023-03-29T01:30:07.763Z,6.80
2023-03-29T01:35:27.970Z,6.90
2023-03-29T01:46:26.663Z,6.90
2023-03-29T01:51:41.818Z,6.90
2023-03-29T01:56:49.842Z,6.90
2023-03-29T02:02:15.391Z,6.90
2023-03-29T02:07:43.530Z,6.90
2023-03-29T02:12:53.614Z,6.90
2023-03-29T02:18:08.396Z,7.00
2023-03-29T02:24:07.838Z,7.00
2023-03-29T02:28:55.959Z,7.00
2023-03-29T02:34:52.626Z,7.00
2023-03-29T02:40:08.262Z,7.00
2023-03-29T02:45:50.287Z,7.10
2023-03-29T02:51:20.731Z,7.10
2023-03-29T03:02:38.860Z,7.10
2023-03-29T03:08:22.059Z,7.20
2023-03-29T03:12:50.543Z,7.10
2023-03-29T03:18:02.806Z,7.10
2023-03-29T03:23:12.832Z,7.10
2023-03-29T03:28:19.736Z,7.20
2023-03-29T03:33:28.432Z,7.20
2023-03-29T03:38:37.890Z,7.20
2023-03-29T03:44:06.720Z,7.20
2023-03-29T03:49:13.775Z,7.20
2023-03-29T03:54:20.817Z,7.30
2023-03-29T03:59:47.628Z,7.30
2023-03-29T04:05:07.497Z,7.30
2023-03-29T04:10:34.658Z,7.30
2023-03-29T04:15:43.264Z,7.30
2023-03-29T04:21:03.050Z,7.40
2023-03-29T04:26:25.412Z,7.40
2023-03-29T04:31:32.152Z,7.40
2023-03-29T04:36:34.850Z,7.40
2023-03-29T04:41:48.485Z,7.50
2023-03-29T04:47:26.992Z,7.50
2023-03-29T04:52:57.704Z,7.40
2023-03-29T04:58:33.645Z,7.50
2023-03-29T05:03:39.868Z,7.50
2023-03-29T05:08:54.588Z,7.60
2023-03-29T05:14:16.000Z,7.60
2023-03-29T05:19:44.589Z,7.60
2023-03-29T05:25:03.116Z,7.60
2023-03-29T05:30:06.568Z,7.70
2023-03-29T05:35:09.085Z,7.70
2023-03-29T05:40:12.969Z,7.70
2023-03-29T05:45:14.917Z,7.80
2023-03-29T05:50:16.922Z,7.80
2023-03-29T05:55:18.845Z,7.80
2023-03-29T06:00:23.934Z,7.90
2023-03-29T06:05:26.587Z,7.90
2023-03-29T06:10:28.843Z,8.00
2023-03-29T06:15:30.659Z,8.10
2023-03-29T06:20:34.311Z,8.10
2023-03-29T06:25:36.150Z,8.20
2023-03-29T06:30:41.972Z,8.20
2023-03-29T06:35:46.727Z,8.30
2023-03-29T06:40:48.665Z,8.40
2023-03-29T06:45:50.518Z,8.50
2023-03-29T06:50:54.530Z,8.50
2023-03-29T06:55:56.438Z,8.60
2023-03-29T07:01:02.673Z,8.70
2023-03-29T07:06:09.892Z,8.80
2023-03-29T07:11:13.181Z,8.80
2023-03-29T07:16:15.222Z,8.90
2023-03-29T07:21:17.525Z,9.00
2023-03-29T07:26:28.451Z,9.10
2023-03-29T07:31:35.180Z,9.10
2023-03-29T07:36:38.605Z,9.20
2023-03-29T07:41:40.685Z,9.20
2023-03-29T07:52:03.857Z,9.30
2023-03-29T07:57:05.773Z,9.30
2023-03-29T08:02:11.046Z,9.30
2023-03-29T08:07:16.378Z,9.40
2023-03-29T08:12:19.545Z,9.50
2023-03-29T08:17:21.395Z,9.50
2023-03-29T08:22:23.170Z,9.70
2023-03-29T08:27:25.286Z,9.80
2023-03-29T08:32:27.669Z,10.00
2023-03-29T08:37:30.136Z,10.10
2023-03-29T08:42:56.770Z,10.20
2023-03-29T08:48:15.545Z,10.40
2023-03-29T08:53:29.536Z,10.50
2023-03-29T08:58:33.236Z,10.60
2023-03-29T09:03:40.024Z,10.70
2023-03-29T09:08:44.874Z,10.80
2023-03-29T09:14:02.013Z,10.90
2023-03-29T09:19:14.463Z,11.00
2023-03-29T09:24:42.728Z,11.00
2023-03-29T09:29:50.440Z,11.00
2023-03-29T09:35:29.670Z,11.10
2023-03-29T09:40:40.235Z,11.00
2023-03-29T09:45:42.777Z,11.10
2023-03-29T09:50:46.893Z,11.10
2023-03-29T09:55:50.637Z,11.10
2023-03-29T10:00:53.146Z,11.10
2023-03-29T10:05:57.346Z,11.20
2023-03-29T10:11:00.171Z,11.20
2023-03-29T10:16:09.285Z,11.20
2023-03-29T10:21:16.920Z,11.30
2023-03-29T10:26:36.173Z,11.30
2023-03-29T10:31:41.731Z,11.40
2023-03-29T10:36:59.747Z,11.40
2023-03-29T10:42:03.741Z,11.50
2023-03-29T10:47:17.099Z,11.60
2023-03-29T10:52:18.961Z,11.90
2023-03-29T10:57:37.975Z,12.00
2023-03-29T11:03:14.372Z,12.20
2023-03-29T11:08:23.735Z,12.50
2023-03-29T11:13:39.108Z,13.20
2023-03-29T11:19:08.904Z,13.50
2023-03-29T11:24:47.446Z,13.90
2023-03-29T11:29:58.732Z,14.20
2023-03-29T11:35:06.613Z,14.30
2023-03-29T11:40:24.073Z,14.40
2023-03-29T11:45:44.094Z,14.40
2023-03-29T11:51:18.981Z,14.50
2023-03-29T11:56:30.021Z,14.60
2023-03-29T12:01:36.283Z,14.60
2023-03-29T12:06:47.682Z,14.70
2023-03-29T12:11:54.931Z,14.70
2023-03-29T12:17:03.694Z,14.80
2023-03-29T12:22:09.400Z,14.90
2023-03-29T12:27:45.208Z,14.80
2023-03-29T12:33:41.422Z,14.80
2023-03-29T12:38:44.061Z,14.80
2023-03-29T12:43:46.841Z,14.80
2023-03-29T12:48:51.787Z,15.00
2023-03-29T12:53:55.814Z,15.20
2023-03-29T12:59:17.821Z,15.40
2023-03-29T13:04:22.578Z,15.60
2023-03-29T13:09:30.040Z,15.70
2023-03-29T13:14:34.283Z,15.70
2023-03-29T13:19:49.406Z,15.70
2023-03-29T13:25:10.130Z,15.70
2023-03-29T13:30:26.732Z,15.70
2023-03-29T13:36:16.784Z,15.70
2023-03-29T13:41:38.581Z,15.80
2023-03-29T13:46:42.607Z,15.90
2023-03-29T13:51:53.557Z,16.00
2023-03-29T13:57:02.688Z,16.00
2023-03-29T14:02:06.610Z,16.00
2023-03-29T14:07:10.777Z,16.00
2023-03-29T14:12:14.163Z,16.00
2023-03-29T14:17:24.959Z,16.00
2023-03-29T14:22:32.404Z,16.00
2023-03-29T14:27:37.148Z,16.00
2023-03-29T14:32:39.721Z,16.10
2023-03-29T14:37:42.360Z,16.00
2023-03-29T14:42:44.463Z,16.00
2023-03-29T14:47:47.403Z,16.00
2023-03-29T14:52:52.283Z,16.10
2023-03-29T14:57:55.892Z,16.20
2023-03-29T15:03:02.295Z,16.30
2023-03-29T15:08:07.334Z,16.40
2023-03-29T15:13:17.500Z,16.40
2023-03-29T15:18:24.393Z,16.50
2023-03-29T15:23:26.310Z,16.50
2023-03-29T15:28:33.729Z,16.40
2023-03-29T15:33:40.578Z,16.40
2023-03-29T15:38:45.189Z,16.30
2023-03-29T15:43:47.382Z,16.20
2023-03-29T15:48:49.254Z,16.20
2023-03-29T15:53:51.216Z,16.20
2023-03-29T15:58:53.096Z,16.10
2023-03-29T16:03:54.922Z,16.10
2023-03-29T16:08:57.427Z,16.10
2023-03-29T16:13:59.530Z,16.10
2023-03-29T16:19:01.454Z,16.10
2023-03-29T16:24:03.994Z,16.10
2023-03-29T16:29:05.856Z,16.10
2023-03-29T16:34:09.293Z,16.10
2023-03-29T16:39:12.133Z,16.10
2023-03-29T16:44:21.583Z,16.10
2023-03-29T16:49:25.051Z,16.00
2023-03-29T16:54:29.666Z,16.00
2023-03-29T16:59:32.088Z,16.00
2023-03-29T17:04:34.060Z,15.90
2023-03-29T17:09:35.952Z,16.00
2023-03-29T17:14:38.040Z,15.90
2023-03-29T17:19:40.138Z,15.80
2023-03-29T17:24:42.070Z,15.80
2023-03-29T17:29:44.110Z,15.70
2023-03-29T17:34:46.429Z,15.70
2023-03-29T17:39:48.476Z,15.70
2023-03-29T17:44:50.449Z,15.60
2023-03-29T17:49:52.597Z,15.60
2023-03-29T17:54:54.537Z,15.50
2023-03-29T17:59:56.435Z,15.50
2023-03-29T18:05:01.629Z,15.40
2023-03-29T18:10:04.213Z,15.40
2023-03-29T18:15:06.946Z,15.30
2023-03-29T18:20:11.931Z,15.30
2023-03-29T18:25:14.672Z,15.20
2023-03-29T18:30:16.902Z,15.20
2023-03-29T18:35:18.878Z,15.10
2023-03-29T18:40:24.850Z,15.00
2023-03-29T18:45:26.801Z,14.90
2023-03-29T18:50:28.703Z,14.90
2023-03-29T18:55:30.874Z,14.80
2023-03-29T19:00:32.832Z,14.70
2023-03-29T19:05:39.188Z,14.70
2023-03-29T19:10:41.097Z,14.60
2023-03-29T19:15:54.421Z,14.60
2023-03-29T19:20:57.786Z,14.50
2023-03-29T19:26:22.402Z,14.40
2023-03-29T19:31:44.065Z,14.40
2023-03-29T19:37:03.680Z,14.40
2023-03-29T19:42:42.880Z,14.30
2023-03-29T19:53:51.917Z,14.30
2023-03-29T19:59:07.813Z,14.30
2023-03-29T20:04:10.453Z,14.30
2023-03-29T20:09:23.065Z,14.30
2023-03-29T20:14:30.062Z,14.30
2023-03-29T20:19:35.432Z,14.20
2023-03-29T20:24:43.143Z,14.20
2023-03-29T20:30:03.623Z,14.20
2023-03-29T20:35:17.216Z,14.20
2023-03-29T20:40:27.163Z,14.20
2023-03-29T20:45:51.631Z,14.10
2023-03-29T20:51:01.047Z,14.10
2023-03-29T20:56:08.409Z,14.10
2023-03-29T21:01:47.090Z,14.00
2023-03-29T21:07:34.614Z,14.00
2023-03-29T21:13:01.896Z,14.00
2023-03-29T21:18:30.261Z,14.00
2023-03-29T21:23:33.013Z,13.90
2023-03-29T21:29:03.347Z,13.90
2023-03-29T21:34:17.846Z,13.90
2023-03-29T21:39:33.953Z,13.90
2023-03-29T21:44:36.312Z,13.90
2023-03-29T21:50:05.860Z,13.90
2023-03-29T21:55:36.348Z,13.80
2023-03-29T22:01:09.422Z,13.80
2023-03-29T22:06:35.137Z,13.80
2023-03-29T22:11:51.762Z,13.80
2023-03-29T22:16:59.212Z,13.80
2023-03-29T22:22:22.736Z,13.80
2023-03-29T22:27:42.515Z,13.80
2023-03-29T22:32:53.009Z,13.80
2023-03-29T22:38:23.557Z,13.80
2023-03-29T22:43:49.941Z,13.80
2023-03-29T22:49:05.510Z,13.80
2023-03-29T22:54:07.882Z,13.80
2023-03-29T22:59:26.616Z,13.80
2023-03-29T23:04:49.519Z,13.80
2023-03-29T23:10:03.845Z,13.80
2023-03-29T23:15:29.627Z,13.80
2023-03-29T23:20:56.262Z,13.80
2023-03-29T23:26:09.343Z,13.90
2023-03-29T23:31:23.063Z,13.90
2023-03-29T23:36:55.063Z,14.00
2023-03-29T23:42:03.136Z,14.00
2023-03-29T23:47:23.996Z,14.10
2023-03-29T23:52:45.113Z,14.10
2023-03-29T23:58:03.304Z,14.20
